createdAt,value
2023-02-19T00:01:13.689Z,78.19
2023-02-19T00:04:17.401Z,78.59
2023-02-19T00:07:19.686Z,78.94
2023-02-19T00:10:22.534Z,77.37
2023-02-19T00:13:24.974Z,77.56
2023-02-19T00:16:28.828Z,77.57
2023-02-19T00:19:31.250Z,77.73
2023-02-19T00:22:33.887Z,78.03
2023-02-19T00:25:37.820Z,78.04
2023-02-19T00:28:40.410Z,78.62
2023-02-19T00:31:46.125Z,79.13
2023-02-19T00:34:48.881Z,79.18
2023-02-19T00:37:51.278Z,80.11
2023-02-19T00:40:54.048Z,80.49
2023-02-19T00:43:59.617Z,80.65
2023-02-19T00:47:02.214Z,80.32
2023-02-19T00:50:06.435Z,80.11
2023-02-19T00:53:09.717Z,79.84
2023-02-19T00:56:12.184Z,80.23
2023-02-19T00:59:15.007Z,80.64
2023-02-19T01:02:17.371Z,81.47
2023-02-19T01:05:20.031Z,81.14
2023-02-19T01:08:22.722Z,81.07
2023-02-19T01:11:25.461Z,80.63
2023-02-19T01:14:28.105Z,81.24
2023-02-19T01:17:30.724Z,81.56
2023-02-19T01:20:37.842Z,82.22
2023-02-19T01:23:41.168Z,82.61
2023-02-19T01:26:43.668Z,83.53
2023-02-19T01:29:46.361Z,83.71
2023-02-19T01:32:48.944Z,83.52
2023-02-19T01:35:53.299Z,83.40
2023-02-19T01:38:55.957Z,82.90
2023-02-19T01:41:58.654Z,82.65
2023-02-19T01:45:21.267Z,83.53
2023-02-19T01:48:26.517Z,83.89
2023-02-19T01:51:30.854Z,82.89
2023-02-19T01:54:36.009Z,83.43
2023-02-19T01:57:41.977Z,84.87
2023-02-19T02:00:44.814Z,85.27
2023-02-19T02:03:48.881Z,85.88
2023-02-19T02:06:56.493Z,86.62
2023-02-19T02:10:17.960Z,86.64
2023-02-19T02:13:20.685Z,85.93
2023-02-19T02:16:23.021Z,85.68
2023-02-19T02:19:25.871Z,85.76
2023-02-19T02:22:32.548Z,85.70
2023-02-19T02:25:55.542Z,84.97
2023-02-19T02:29:01.482Z,85.21
2023-02-19T02:32:25.025Z,85.05
2023-02-19T02:35:32.964Z,85.69
2023-02-19T02:38:39.392Z,85.85
2023-02-19T02:41:45.934Z,85.80
2023-02-19T02:45:07.335Z,85.04
2023-02-19T02:48:24.163Z,85.02
2023-02-19T02:51:29.178Z,85.35
2023-02-19T02:54:52.519Z,85.72
2023-02-19T02:57:55.631Z,86.32
2023-02-19T03:01:19.784Z,86.99
2023-02-19T03:04:27.933Z,87.24
2023-02-19T03:07:34.744Z,87.92
2023-02-19T03:10:37.700Z,88.50
2023-02-19T03:13:59.183Z,89.42
2023-02-19T03:17:37.468Z,89.36
2023-02-19T03:20:43.701Z,90.20
2023-02-19T03:24:05.881Z,90.81
2023-02-19T03:27:10.487Z,90.80
2023-02-19T03:30:20.398Z,90.65
2023-02-19T03:33:26.525Z,91.23
2023-02-19T03:36:34.931Z,91.34
2023-02-19T03:39:44.327Z,90.33
2023-02-19T03:42:55.079Z,90.39
2023-02-19T03:46:06.668Z,90.49
2023-02-19T03:49:18.288Z,91.08
2023-02-19T03:52:25.072Z,90.92
2023-02-19T03:55:32.661Z,91.42
2023-02-19T03:58:40.234Z,91.61
2023-02-19T04:01:52.880Z,91.92
2023-02-19T04:05:03.608Z,92.07
2023-02-19T04:08:17.288Z,92.45
2023-02-19T04:11:22.428Z,92.30
2023-02-19T04:14:51.313Z,92.89
2023-02-19T04:17:59.427Z,92.75
2023-02-19T04:21:02.783Z,91.88
2023-02-19T04:24:12.165Z,91.09
2023-02-19T04:27:14.850Z,91.31
2023-02-19T04:30:19.779Z,92.05
2023-02-19T04:33:22.123Z,91.98
2023-02-19T04:36:24.694Z,93.15
2023-02-19T04:39:27.297Z,95.02
2023-02-19T04:42:30.356Z,95.95
2023-02-19T04:45:32.790Z,97.07
2023-02-19T04:48:35.452Z,98.34
2023-02-19T04:51:38.558Z,99.96
2023-02-19T04:54:41.281Z,99.56
2023-02-19T04:57:43.690Z,100.00
2023-02-19T05:00:46.642Z,100.00
2023-02-19T05:03:49.474Z,98.85
2023-02-19T05:06:52.164Z,96.57
2023-02-19T05:09:54.792Z,95.44
2023-02-19T05:12:58.110Z,94.78
2023-02-19T05:16:01.837Z,93.54
2023-02-19T05:19:04.484Z,92.48
2023-02-19T05:22:06.848Z,93.08
2023-02-19T05:25:09.490Z,94.82
2023-02-19T05:28:17.605Z,95.28
2023-02-19T05:31:21.310Z,95.44
2023-02-19T05:34:23.768Z,95.83
2023-02-19T05:37:26.577Z,95.05
2023-02-19T05:40:29.303Z,94.35
2023-02-19T05:43:32.038Z,93.86
2023-02-19T05:46:34.483Z,94.34
2023-02-19T05:49:37.219Z,93.96
2023-02-19T05:52:39.660Z,94.47
2023-02-19T05:55:42.290Z,94.79
2023-02-19T05:58:45.063Z,95.27
2023-02-19T06:01:48.383Z,95.18
2023-02-19T06:04:50.934Z,95.03
2023-02-19T06:07:53.351Z,95.95
2023-02-19T06:10:56.013Z,96.11
2023-02-19T06:13:58.438Z,97.33
2023-02-19T06:17:01.204Z,98.34
2023-02-19T06:20:05.086Z,98.23
2023-02-19T06:23:07.792Z,98.63
2023-02-19T06:26:16.017Z,98.82
2023-02-19T06:29:18.661Z,100.00
2023-02-19T06:32:21.150Z,100.00
2023-02-19T06:35:23.882Z,100.00
2023-02-19T06:38:26.782Z,100.00
2023-02-19T06:41:29.411Z,100.00
2023-02-19T06:44:31.926Z,100.00
2023-02-19T06:47:34.678Z,100.00
2023-02-19T06:50:37.064Z,100.00
2023-02-19T06:53:40.052Z,100.00
2023-02-19T06:56:42.607Z,100.00
2023-02-19T06:59:45.894Z,100.00
2023-02-19T07:02:48.340Z,100.00
2023-02-19T07:05:51.005Z,100.00
2023-02-19T07:08:54.586Z,100.00
2023-02-19T07:11:57.261Z,100.00
2023-02-19T07:14:59.694Z,100.00
2023-02-19T07:18:02.441Z,100.00
2023-02-19T07:21:06.188Z,100.00
2023-02-19T07:24:10.298Z,100.00
2023-02-19T07:27:12.822Z,100.00
2023-02-19T07:30:15.581Z,100.00
2023-02-19T07:33:18.102Z,100.00
2023-02-19T07:36:21.837Z,99.68
2023-02-19T07:39:24.232Z,99.13
2023-02-19T07:42:26.831Z,99.71
2023-02-19T07:45:29.648Z,99.13
2023-02-19T07:48:32.538Z,98.62
2023-02-19T07:51:34.898Z,99.30
2023-02-19T07:54:37.741Z,100.00
2023-02-19T07:57:40.107Z,100.00
2023-02-19T08:00:42.866Z,100.00
2023-02-19T08:03:46.226Z,99.53
2023-02-19T08:06:49.772Z,100.00
2023-02-19T08:10:12.306Z,100.00
2023-02-19T08:13:27.951Z,100.00
2023-02-19T08:16:42.554Z,100.00
2023-02-19T08:19:45.739Z,100.00
2023-02-19T08:22:48.606Z,100.00
2023-02-19T08:25:51.736Z,100.00
2023-02-19T08:28:54.671Z,100.00
2023-02-19T08:31:57.126Z,100.00
2023-02-19T08:34:59.713Z,100.00
2023-02-19T08:38:02.673Z,100.00
2023-02-19T08:41:10.629Z,100.00
2023-02-19T08:44:13.625Z,100.00
2023-02-19T08:47:16.312Z,100.00
2023-02-19T08:50:18.868Z,100.00
2023-02-19T08:53:21.972Z,100.00
2023-02-19T08:56:24.346Z,100.00
2023-02-19T08:59:28.559Z,100.00
2023-02-19T09:02:31.318Z,100.00
2023-02-19T09:05:33.914Z,100.00
2023-02-19T09:08:36.186Z,100.00
2023-02-19T09:11:39.340Z,100.00
2023-02-19T09:14:41.800Z,100.00
2023-02-19T09:17:44.483Z,100.00
2023-02-19T09:20:46.932Z,100.00
2023-02-19T09:23:49.645Z,100.00
2023-02-19T09:26:53.294Z,100.00
2023-02-19T09:29:56.107Z,100.00
2023-02-19T09:32:58.508Z,100.00
2023-02-19T09:36:01.618Z,100.00
2023-02-19T09:39:06.592Z,100.00
2023-02-19T09:42:12.786Z,100.00
2023-02-19T09:45:26.142Z,100.00
2023-02-19T09:48:29.038Z,100.00
2023-02-19T09:51:32.742Z,100.00
2023-02-19T09:54:37.225Z,100.00
2023-02-19T09:57:40.217Z,100.00
2023-02-19T10:00:42.986Z,100.00
2023-02-19T10:03:48.022Z,100.00
2023-02-19T10:06:51.487Z,100.00
2023-02-19T10:09:59.390Z,100.00
2023-02-19T10:13:13.160Z,100.00
2023-02-19T10:16:17.690Z,100.00
2023-02-19T10:19:20.047Z,100.00
2023-02-19T10:22:23.028Z,100.00
2023-02-19T10:25:25.313Z,100.00
2023-02-19T10:28:33.619Z,100.00
2023-02-19T10:31:36.019Z,96.62
2023-02-19T10:34:38.946Z,94.01
2023-02-19T10:37:48.877Z,94.96
2023-02-19T10:40:57.181Z,93.10
2023-02-19T10:44:16.277Z,95.16
2023-02-19T10:47:22.614Z,96.33
2023-02-19T10:50:27.162Z,93.60
2023-02-19T10:53:39.774Z,95.05
2023-02-19T10:56:42.319Z,96.13
2023-02-19T10:59:53.129Z,94.59
2023-02-19T11:03:14.167Z,94.59
2023-02-19T11:06:18.530Z,94.50
2023-02-19T11:09:24.045Z,93.58
2023-02-19T11:12:30.894Z,91.75
2023-02-19T11:15:34.593Z,88.09
2023-02-19T11:18:37.900Z,85.63
2023-02-19T11:21:40.407Z,82.88
2023-02-19T11:24:47.874Z,80.28
2023-02-19T11:27:54.503Z,78.78
2023-02-19T11:31:13.218Z,79.61
2023-02-19T11:34:21.107Z,78.65
2023-02-19T11:37:23.736Z,79.34
2023-02-19T11:40:32.756Z,79.25
2023-02-19T11:43:53.815Z,77.29
2023-02-19T11:47:15.122Z,77.35
2023-02-19T11:50:36.837Z,76.52
2023-02-19T11:53:47.080Z,73.79
2023-02-19T11:57:11.678Z,72.81
2023-02-19T12:00:27.014Z,72.58
2023-02-19T12:03:42.096Z,71.37
2023-02-19T12:06:53.542Z,70.61
2023-02-19T12:10:05.651Z,71.05
2023-02-19T12:13:28.049Z,69.34
2023-02-19T12:16:52.609Z,69.42
2023-02-19T12:20:24.516Z,68.62
2023-02-19T12:23:39.000Z,68.45
2023-02-19T12:26:41.312Z,69.49
2023-02-19T12:29:49.814Z,69.49
2023-02-19T12:32:55.213Z,69.41
2023-02-19T12:36:00.953Z,69.15
2023-02-19T12:39:12.157Z,69.28
2023-02-19T12:42:33.488Z,68.92
2023-02-19T12:45:36.167Z,69.43
2023-02-19T12:48:39.301Z,67.96
2023-02-19T12:51:47.112Z,71.01
2023-02-19T12:54:54.171Z,84.98
2023-02-19T12:58:01.433Z,85.23
2023-02-19T13:01:05.569Z,86.49
2023-02-19T13:04:12.540Z,86.60
2023-02-19T13:07:27.886Z,84.62
2023-02-19T13:10:30.781Z,83.76
2023-02-19T13:13:33.478Z,81.46
2023-02-19T13:16:39.394Z,80.56
2023-02-19T13:19:42.821Z,81.04
2023-02-19T13:23:07.466Z,80.91
2023-02-19T13:26:29.773Z,85.05
2023-02-19T13:29:32.134Z,89.09
2023-02-19T13:32:37.874Z,89.56
2023-02-19T13:36:01.351Z,95.61
2023-02-19T13:39:07.472Z,98.92
2023-02-19T13:42:23.501Z,100.00
2023-02-19T13:45:29.174Z,100.00
2023-02-19T13:48:36.082Z,100.00
2023-02-19T13:51:39.289Z,100.00
2023-02-19T13:54:41.750Z,100.00
2023-02-19T13:57:44.929Z,100.00
2023-02-19T14:00:51.721Z,100.00
2023-02-19T14:04:09.841Z,100.00
2023-02-19T14:07:12.451Z,100.00
2023-02-19T14:10:35.381Z,100.00
2023-02-19T14:13:50.742Z,100.00
2023-02-19T14:17:05.652Z,100.00
2023-02-19T14:20:09.199Z,100.00
2023-02-19T14:23:16.507Z,100.00
2023-02-19T14:26:19.310Z,98.95
2023-02-19T14:29:22.703Z,92.73
2023-02-19T14:32:26.000Z,89.66
2023-02-19T14:35:36.330Z,86.65
2023-02-19T14:38:44.596Z,87.50
2023-02-19T14:41:57.488Z,86.48
2023-02-19T14:45:03.018Z,86.35
2023-02-19T14:48:06.356Z,87.26
2023-02-19T14:51:35.045Z,86.06
2023-02-19T14:54:38.652Z,87.72
2023-02-19T14:57:43.726Z,86.53
2023-02-19T15:00:47.171Z,88.89
2023-02-19T15:03:49.661Z,90.72
2023-02-19T15:06:56.660Z,92.08
2023-02-19T15:10:04.942Z,93.86
2023-02-19T15:13:12.092Z,95.46
2023-02-19T15:16:18.798Z,96.22
2023-02-19T15:19:22.425Z,97.62
2023-02-19T15:22:26.026Z,97.55
2023-02-19T15:25:36.955Z,97.25
2023-02-19T15:28:39.313Z,96.98
2023-02-19T15:32:00.944Z,97.63
2023-02-19T15:35:04.500Z,97.46
2023-02-19T15:38:12.493Z,97.90
2023-02-19T15:41:19.763Z,98.05
2023-02-19T15:44:28.642Z,97.69
2023-02-19T15:47:37.840Z,98.50
2023-02-19T15:50:44.159Z,99.40
2023-02-19T15:53:54.140Z,99.17
2023-02-19T15:56:59.472Z,97.96
2023-02-19T16:00:07.164Z,98.51
2023-02-19T16:03:17.857Z,97.80
2023-02-19T16:06:21.999Z,98.38
2023-02-19T16:09:32.031Z,98.08
2023-02-19T16:12:34.977Z,98.90
2023-02-19T16:15:39.470Z,99.72
2023-02-19T16:18:46.694Z,99.31
2023-02-19T16:21:49.758Z,99.33
2023-02-19T16:24:54.904Z,99.12
2023-02-19T16:27:57.897Z,99.46
2023-02-19T16:31:02.276Z,100.00
2023-02-19T16:34:37.093Z,100.00
2023-02-19T16:37:41.173Z,100.00
2023-02-19T16:40:50.888Z,100.00
2023-02-19T16:43:53.790Z,100.00
2023-02-19T16:47:04.748Z,100.00
2023-02-19T16:50:13.327Z,100.00
2023-02-19T16:53:24.919Z,100.00
2023-02-19T16:56:27.852Z,100.00
2023-02-19T16:59:30.911Z,100.00
2023-02-19T17:02:34.913Z,100.00
2023-02-19T17:05:38.632Z,100.00
2023-02-19T17:08:42.393Z,100.00
2023-02-19T17:11:45.113Z,100.00
2023-02-19T17:14:47.957Z,100.00
2023-02-19T17:17:50.725Z,100.00
2023-02-19T17:21:02.595Z,100.00
2023-02-19T17:24:05.359Z,100.00
2023-02-19T17:27:10.538Z,100.00
2023-02-19T17:30:15.611Z,100.00
2023-02-19T17:33:20.276Z,100.00
2023-02-19T17:36:26.670Z,100.00
2023-02-19T17:39:29.587Z,100.00
2023-02-19T17:42:32.197Z,100.00
2023-02-19T17:45:35.158Z,100.00
2023-02-19T17:48:37.576Z,100.00
2023-02-19T17:51:44.037Z,100.00
2023-02-19T17:54:46.788Z,100.00
2023-02-19T17:57:50.785Z,100.00
2023-02-19T18:00:53.675Z,100.00
2023-02-19T18:03:56.480Z,100.00
2023-02-19T18:06:59.133Z,100.00
2023-02-19T18:10:02.884Z,100.00
2023-02-19T18:13:07.430Z,100.00
2023-02-19T18:16:10.528Z,100.00
2023-02-19T18:19:13.217Z,100.00
2023-02-19T18:22:16.816Z,100.00
2023-02-19T18:25:19.882Z,100.00
2023-02-19T18:28:23.042Z,100.00
2023-02-19T18:31:25.900Z,100.00
2023-02-19T18:34:28.869Z,100.00
2023-02-19T18:37:32.890Z,100.00
2023-02-19T18:40:36.148Z,100.00
2023-02-19T18:43:40.192Z,100.00
2023-02-19T18:46:43.056Z,100.00
2023-02-19T18:49:49.273Z,100.00
2023-02-19T18:52:53.199Z,100.00
2023-02-19T18:55:56.965Z,100.00
2023-02-19T18:59:00.418Z,100.00
2023-02-19T19:02:06.337Z,100.00
2023-02-19T19:05:09.010Z,100.00
2023-02-19T19:08:11.499Z,100.00
2023-02-19T19:11:14.615Z,100.00
2023-02-19T19:14:17.338Z,100.00
2023-02-19T19:17:19.987Z,100.00
2023-02-19T19:20:23.311Z,100.00
2023-02-19T19:23:26.377Z,100.00
2023-02-19T19:26:28.970Z,100.00
2023-02-19T19:29:32.049Z,100.00
2023-02-19T19:32:34.822Z,100.00
2023-02-19T19:35:37.879Z,100.00
2023-02-19T19:38:41.326Z,100.00
2023-02-19T19:41:44.380Z,100.00
2023-02-19T19:44:47.230Z,100.00
2023-02-19T19:47:50.164Z,100.00
2023-02-19T19:50:54.863Z,100.00
2023-02-19T19:53:58.440Z,100.00
2023-02-19T19:57:01.069Z,100.00
2023-02-19T20:00:05.231Z,100.00
2023-02-19T20:03:17.861Z,100.00
2023-02-19T20:06:25.715Z,100.00
2023-02-19T20:09:29.146Z,100.00
2023-02-19T20:12:32.412Z,100.00
2023-02-19T20:15:35.137Z,100.00
2023-02-19T20:18:38.353Z,100.00
2023-02-19T20:21:44.261Z,100.00
2023-02-19T20:24:51.590Z,100.00
2023-02-19T20:27:54.425Z,100.00
2023-02-19T20:30:57.589Z,100.00
2023-02-19T20:34:00.517Z,100.00
2023-02-19T20:37:03.127Z,97.66
2023-02-19T20:40:06.158Z,95.47
2023-02-19T20:43:09.192Z,92.65
2023-02-19T20:46:12.375Z,94.35
2023-02-19T20:49:16.678Z,93.45
2023-02-19T20:52:20.857Z,89.38
2023-02-19T20:55:24.904Z,88.48
2023-02-19T20:58:27.589Z,87.15
2023-02-19T21:01:30.531Z,87.60
2023-02-19T21:04:33.514Z,88.98
2023-02-19T21:07:36.354Z,89.09
2023-02-19T21:10:39.117Z,88.86
2023-02-19T21:13:42.653Z,88.66
2023-02-19T21:16:45.546Z,86.62
2023-02-19T21:19:50.236Z,84.81
2023-02-19T21:22:52.879Z,85.62
2023-02-19T21:25:55.777Z,86.19
2023-02-19T21:28:58.365Z,86.61
2023-02-19T21:32:01.323Z,87.13
2023-02-19T21:35:04.205Z,86.10
2023-02-19T21:38:07.097Z,86.14
2023-02-19T21:41:09.510Z,85.87
2023-02-19T21:44:12.460Z,83.70
2023-02-19T21:47:14.830Z,81.16
2023-02-19T21:50:20.245Z,77.34
2023-02-19T21:53:22.897Z,78.12
2023-02-19T21:56:29.433Z,77.62
2023-02-19T21:59:31.840Z,76.85
2023-02-19T22:02:34.603Z,76.03
2023-02-19T22:05:37.314Z,74.30
2023-02-19T22:08:39.649Z,73.88
2023-02-19T22:11:42.524Z,72.03
2023-02-19T22:14:45.239Z,70.61
2023-02-19T22:17:47.912Z,71.31
2023-02-19T22:20:50.314Z,69.29
2023-02-19T22:23:53.649Z,68.82
2023-02-19T22:26:56.714Z,68.97
2023-02-19T22:29:59.369Z,67.75
2023-02-19T22:33:01.767Z,68.55
2023-02-19T22:36:04.576Z,68.03
2023-02-19T22:39:07.848Z,68.91
2023-02-19T22:42:10.745Z,68.85
2023-02-19T22:45:13.755Z,69.34
2023-02-19T22:48:28.376Z,69.30
2023-02-19T22:51:32.649Z,70.41
2023-02-19T22:54:36.180Z,69.25
2023-02-19T22:57:38.523Z,67.08
2023-02-19T23:00:42.363Z,66.74
2023-02-19T23:03:52.533Z,65.53
2023-02-19T23:06:55.238Z,64.84
2023-02-19T23:09:57.584Z,64.35
2023-02-19T23:13:00.477Z,65.25
2023-02-19T23:16:04.722Z,65.76
2023-02-19T23:19:11.385Z,64.92
2023-02-19T23:22:13.724Z,65.61
2023-02-19T23:25:16.415Z,65.53
2023-02-19T23:28:18.826Z,64.99
2023-02-19T23:31:21.651Z,65.81
2023-02-19T23:34:24.533Z,66.39
2023-02-19T23:37:27.122Z,65.19
2023-02-19T23:40:29.580Z,66.01
2023-02-19T23:43:32.244Z,65.57
2023-02-19T23:46:35.002Z,66.04
2023-02-19T23:49:38.101Z,66.82
2023-02-19T23:52:40.500Z,66.78
2023-02-19T23:55:43.273Z,68.67
2023-02-19T23:58:45.604Z,68.22
